createdAt,value
2023-04-15T00:01:10.321Z,101313.44
2023-04-15T00:03:38.525Z,101317.88
2023-04-15T00:06:06.990Z,101319.72
2023-04-15T00:08:34.884Z,101327.69
2023-04-15T00:11:05.862Z,101333.81
2023-04-15T00:13:33.978Z,101331.19
2023-04-15T00:16:03.321Z,101333.00
2023-04-15T00:18:31.709Z,101299.13
2023-04-15T00:21:00.205Z,101340.91
2023-04-15T00:23:29.092Z,101344.47
2023-04-15T00:25:56.999Z,101346.22
2023-04-15T00:28:24.898Z,101333.84
2023-04-15T00:30:53.172Z,101339.22
2023-04-15T00:33:22.527Z,101342.75
2023-04-15T00:35:50.945Z,101352.50
2023-04-15T00:38:18.899Z,101353.38
2023-04-15T00:40:46.823Z,101350.78
2023-04-15T00:43:15.009Z,101364.00
2023-04-15T00:45:43.505Z,101363.19
2023-04-15T00:48:11.503Z,101361.53
2023-04-15T00:50:40.721Z,101362.53
2023-04-15T00:53:08.567Z,101371.53
2023-04-15T00:55:36.552Z,101374.25
2023-04-15T00:58:04.443Z,101367.47
2023-04-15T01:00:32.343Z,101383.31
2023-04-15T01:03:00.446Z,101393.88
2023-04-15T01:05:28.504Z,101387.66
2023-04-15T01:07:57.918Z,101388.47
2023-04-15T01:10:25.771Z,101388.44
2023-04-15T01:12:53.667Z,101392.78
2023-04-15T01:15:21.923Z,101395.34
2023-04-15T01:17:49.895Z,101404.06
2023-04-15T01:20:17.998Z,101399.63
2023-04-15T01:22:46.573Z,101410.22
2023-04-15T01:25:18.948Z,101411.09
2023-04-15T01:27:48.259Z,101401.41
2023-04-15T01:30:16.258Z,101411.09
2023-04-15T01:32:44.410Z,101400.50
2023-04-15T01:35:12.301Z,101401.41
2023-04-15T01:37:40.485Z,101400.59
2023-04-15T01:40:09.443Z,101406.84
2023-04-15T01:42:37.716Z,101404.28
2023-04-15T01:45:08.329Z,101411.38
2023-04-15T01:47:36.246Z,101398.09
2023-04-15T01:50:04.129Z,101398.09
2023-04-15T01:52:32.215Z,101411.34
2023-04-15T01:55:00.172Z,101402.38
2023-04-15T01:57:28.071Z,101405.81
2023-04-15T01:59:56.163Z,101399.56
2023-04-15T02:02:25.897Z,101402.09
2023-04-15T02:04:53.821Z,101409.09
2023-04-15T02:07:21.919Z,101401.13
2023-04-15T02:09:49.814Z,101403.78
2023-04-15T02:12:17.677Z,101401.19
2023-04-15T02:14:45.525Z,101408.22
2023-04-15T02:17:13.415Z,101411.72
2023-04-15T02:19:43.050Z,101416.09
2023-04-15T02:22:14.615Z,101431.03
2023-04-15T02:24:42.479Z,101431.09
2023-04-15T02:27:10.422Z,101444.66
2023-04-15T02:29:38.405Z,101440.31
2023-04-15T02:32:07.503Z,101442.97
2023-04-15T02:34:35.461Z,101449.06
2023-04-15T02:37:05.537Z,101456.06
2023-04-15T02:39:33.423Z,101456.91
2023-04-15T02:42:01.315Z,101455.06
2023-04-15T02:44:29.236Z,101456.84
2023-04-15T02:46:58.356Z,101454.19
2023-04-15T02:49:26.424Z,101454.28
2023-04-15T02:51:54.301Z,101458.47
2023-04-15T02:54:23.923Z,101456.66
2023-04-15T02:56:52.259Z,101464.63
2023-04-15T02:59:20.149Z,101465.50
2023-04-15T03:01:48.215Z,101453.09
2023-04-15T03:04:16.371Z,101461.19
2023-04-15T03:06:44.390Z,101457.88
2023-04-15T03:09:12.497Z,101421.44
2023-04-15T03:11:42.218Z,101477.22
2023-04-15T03:14:10.161Z,101470.19
2023-04-15T03:16:38.033Z,101476.47
2023-04-15T03:19:05.896Z,101483.56
2023-04-15T03:21:33.773Z,101482.69
2023-04-15T03:24:01.646Z,101487.13
2023-04-15T03:26:29.620Z,101497.78
2023-04-15T03:28:59.636Z,101478.66
2023-04-15T03:31:27.765Z,101504.03
2023-04-15T03:33:55.740Z,101501.53
2023-04-15T03:36:23.645Z,101508.56
2023-04-15T03:38:51.509Z,101510.41
2023-04-15T03:41:19.423Z,101521.06
2023-04-15T03:43:47.344Z,101523.75
2023-04-15T03:46:16.625Z,101530.06
2023-04-15T03:48:44.512Z,101535.41
2023-04-15T03:51:12.404Z,101540.75
2023-04-15T03:53:40.450Z,101540.81
2023-04-15T03:56:08.981Z,101533.94
2023-04-15T03:58:36.935Z,101555.06
2023-04-15T04:01:04.824Z,101557.84
2023-04-15T04:03:34.572Z,101552.53
2023-04-15T04:06:02.781Z,101544.81
2023-04-15T04:08:30.658Z,101558.03
2023-04-15T04:10:58.525Z,101565.19
2023-04-15T04:13:26.423Z,101567.78
2023-04-15T04:15:54.376Z,101564.34
2023-04-15T04:18:22.497Z,101568.91
2023-04-15T04:20:51.709Z,101581.19
2023-04-15T04:23:19.578Z,101585.66
2023-04-15T04:25:47.673Z,101592.81
2023-04-15T04:28:15.538Z,101600.81
2023-04-15T04:30:43.437Z,101598.19
2023-04-15T04:33:11.772Z,101607.03
2023-04-15T04:35:39.672Z,101610.59
2023-04-15T04:38:08.926Z,101615.06
2023-04-15T04:40:36.871Z,101616.84
2023-04-15T04:43:04.755Z,101622.16
2023-04-15T04:45:32.634Z,101623.06
2023-04-15T04:48:00.713Z,101624.94
2023-04-15T04:50:28.687Z,101617.13
2023-04-15T04:52:56.625Z,101632.00
2023-04-15T04:55:25.896Z,101638.19
2023-04-15T04:57:53.889Z,101645.34
2023-04-15T05:00:21.777Z,101647.03
2023-04-15T05:02:49.776Z,101658.56
2023-04-15T05:05:17.857Z,101663.03
2023-04-15T05:07:45.741Z,101677.19
2023-04-15T05:10:14.784Z,101679.91
2023-04-15T05:12:44.195Z,101692.31
2023-04-15T05:15:12.560Z,101696.78
2023-04-15T05:17:40.509Z,101688.03
2023-04-15T05:20:09.742Z,101691.69
2023-04-15T05:22:37.944Z,101693.47
2023-04-15T05:25:06.585Z,101687.53
2023-04-15T05:27:34.487Z,101697.53
2023-04-15T05:30:03.922Z,101695.97
2023-04-15T05:32:31.918Z,101701.44
2023-04-15T05:34:59.881Z,101700.66
2023-04-15T05:37:27.732Z,101704.19
2023-04-15T05:39:55.624Z,101713.06
2023-04-15T05:42:23.545Z,101716.56
2023-04-15T05:44:51.848Z,101722.66
2023-04-15T05:47:21.301Z,101727.13
2023-04-15T05:49:49.286Z,101732.38
2023-04-15T05:52:17.504Z,101739.41
2023-04-15T05:54:45.403Z,101746.47
2023-04-15T05:57:13.288Z,101751.69
2023-04-15T05:59:42.200Z,101751.63
2023-04-15T06:02:11.039Z,101756.84
2023-04-15T06:04:40.543Z,101754.16
2023-04-15T06:07:08.521Z,101763.81
2023-04-15T06:09:36.399Z,101767.22
2023-04-15T06:12:14.889Z,101776.75
2023-04-15T06:14:42.953Z,101771.31
2023-04-15T06:17:10.896Z,101780.84
2023-04-15T06:19:40.469Z,101786.72
2023-04-15T06:22:08.634Z,101791.00
2023-04-15T06:24:37.177Z,101808.44
2023-04-15T06:27:05.201Z,101807.28
2023-04-15T06:29:33.062Z,101815.91
2023-04-15T06:32:01.074Z,101824.56
2023-04-15T06:34:28.969Z,101827.91
2023-04-15T06:36:58.208Z,101827.69
2023-04-15T06:39:26.173Z,101831.94
2023-04-15T06:41:54.165Z,101831.94
2023-04-15T06:44:22.033Z,101847.53
2023-04-15T06:46:50.068Z,101848.25
2023-04-15T06:49:18.085Z,101857.00
2023-04-15T06:51:46.293Z,101848.00
2023-04-15T06:54:15.572Z,101847.75
2023-04-15T06:56:43.775Z,101852.88
2023-04-15T06:59:11.675Z,101868.72
2023-04-15T07:01:39.570Z,101865.88
2023-04-15T07:04:07.715Z,101871.03
2023-04-15T07:06:35.669Z,101864.81
2023-04-15T07:09:05.172Z,101881.41
2023-04-15T07:11:34.839Z,101887.41
2023-04-15T07:14:02.718Z,101889.88
2023-04-15T07:16:31.113Z,101891.50
2023-04-15T07:18:59.101Z,101893.09
2023-04-15T07:21:27.720Z,101890.25
2023-04-15T07:23:55.638Z,101883.00
2023-04-15T07:26:23.608Z,101894.41
2023-04-15T07:28:52.956Z,101896.00
2023-04-15T07:31:21.182Z,101895.84
2023-04-15T07:33:49.092Z,101901.78
2023-04-15T07:36:16.920Z,101910.41
2023-04-15T07:38:45.343Z,101918.31
2023-04-15T07:41:13.261Z,101924.41
2023-04-15T07:43:41.140Z,101933.28
2023-04-15T07:46:10.465Z,101935.63
2023-04-15T07:48:38.476Z,101938.06
2023-04-15T07:51:06.984Z,101907.09
2023-04-15T07:53:34.860Z,101935.56
2023-04-15T07:56:02.802Z,101940.75
2023-04-15T07:58:30.674Z,101937.78
2023-04-15T08:00:58.724Z,101948.28
2023-04-15T08:03:29.336Z,101955.25
2023-04-15T08:05:57.702Z,101947.22
2023-04-15T08:08:26.483Z,101935.06
2023-04-15T08:10:54.616Z,101945.59
2023-04-15T08:13:22.506Z,101959.53
2023-04-15T08:16:14.741Z,101960.22
2023-04-15T08:18:44.110Z,101965.34
2023-04-15T08:21:12.363Z,101961.75
2023-04-15T08:23:40.329Z,101962.88
2023-04-15T08:26:08.839Z,101973.06
2023-04-15T08:28:46.448Z,101980.38
2023-04-15T08:31:14.871Z,101971.84
2023-04-15T08:33:44.417Z,101990.81
2023-04-15T08:36:14.220Z,101984.19
2023-04-15T08:38:42.167Z,101995.78
2023-04-15T08:41:14.162Z,101992.22
2023-04-15T08:43:44.869Z,101999.31
2023-04-15T08:46:12.755Z,101992.06
2023-04-15T08:48:41.538Z,101999.06
2023-04-15T08:51:11.066Z,101977.13
2023-04-15T08:53:39.039Z,102011.13
2023-04-15T08:56:07.301Z,102023.44
2023-04-15T08:58:35.395Z,102034.75
2023-04-15T09:01:03.503Z,102027.53
2023-04-15T09:03:31.745Z,102034.50
2023-04-15T09:05:59.800Z,102033.50
2023-04-15T09:08:29.080Z,102038.88
2023-04-15T09:10:56.973Z,102037.81
2023-04-15T09:13:24.967Z,102046.41
2023-04-15T09:15:52.886Z,102058.50
2023-04-15T09:18:28.823Z,102050.97
2023-04-15T09:20:56.730Z,102054.06
2023-04-15T09:23:24.660Z,102048.56
2023-04-15T09:25:53.999Z,102064.69
2023-04-15T09:28:27.939Z,102064.94
2023-04-15T09:30:59.046Z,102059.25
2023-04-15T09:33:27.435Z,102055.22
2023-04-15T09:36:00.075Z,102061.00
2023-04-15T09:38:28.974Z,102060.25
2023-04-15T09:40:59.005Z,102065.72
2023-04-15T09:43:38.707Z,102063.56
2023-04-15T09:46:07.041Z,102060.00
2023-04-15T09:48:35.105Z,102081.78
2023-04-15T09:51:03.076Z,102079.03
2023-04-15T09:53:31.914Z,102078.03
2023-04-15T09:56:02.361Z,102079.59
2023-04-15T09:58:31.644Z,102078.31
2023-04-15T10:01:00.154Z,102095.94
2023-04-15T10:03:29.174Z,102081.63
2023-04-15T10:05:58.033Z,102092.94
2023-04-15T10:08:26.665Z,102089.09
2023-04-15T10:10:58.067Z,102094.00
2023-04-15T10:13:30.382Z,102094.59
2023-04-15T10:15:59.468Z,102097.75
2023-04-15T10:18:27.970Z,102098.06
2023-04-15T10:20:56.196Z,102108.59
2023-04-15T10:23:24.552Z,102102.69
2023-04-15T10:25:53.052Z,102096.94
2023-04-15T10:28:21.039Z,102116.94
2023-04-15T10:30:50.807Z,102108.09
2023-04-15T10:33:20.072Z,102114.13
2023-04-15T10:35:48.946Z,102112.97
2023-04-15T10:38:39.132Z,102117.19
2023-04-15T10:41:21.578Z,102116.91
2023-04-15T10:43:53.679Z,102117.69
2023-04-15T10:46:25.729Z,102132.81
2023-04-15T10:48:55.296Z,102124.75
2023-04-15T10:51:31.249Z,102122.81
2023-04-15T10:53:59.955Z,102126.91
2023-04-15T10:56:30.121Z,102127.50
2023-04-15T10:59:01.542Z,102132.41
2023-04-15T11:01:56.744Z,102132.59
2023-04-15T11:04:53.635Z,102128.03
2023-04-15T11:07:50.140Z,102135.81
2023-04-15T11:10:51.922Z,102128.91
2023-04-15T11:13:21.886Z,102117.19
2023-04-15T11:15:50.079Z,102120.44
2023-04-15T11:18:19.802Z,102137.38
2023-04-15T11:20:48.814Z,102143.25
2023-04-15T11:23:17.014Z,102133.06
2023-04-15T11:25:45.021Z,102141.88
2023-04-15T11:28:13.425Z,102146.44
2023-04-15T11:30:41.422Z,102139.47
2023-04-15T11:33:10.525Z,102139.94
2023-04-15T11:35:41.761Z,102148.94
2023-04-15T11:38:10.740Z,102149.63
2023-04-15T11:40:38.789Z,102142.38
2023-04-15T11:43:07.773Z,102150.75
2023-04-15T11:45:35.824Z,102149.63
2023-04-15T11:48:08.003Z,102152.50
2023-04-15T11:50:36.130Z,102154.41
2023-04-15T11:53:08.353Z,102159.34
2023-04-15T11:55:43.405Z,102159.47
2023-04-15T11:58:13.523Z,102167.47
2023-04-15T12:00:43.927Z,102176.88
2023-04-15T12:03:29.933Z,102165.00
2023-04-15T12:06:14.962Z,102170.91
2023-04-15T12:09:03.129Z,102173.84
2023-04-15T12:11:32.965Z,102176.84
2023-04-15T12:14:04.429Z,102188.25
2023-04-15T12:16:32.948Z,102179.94
2023-04-15T12:19:01.814Z,102189.31
2023-04-15T12:21:35.684Z,102182.66
2023-04-15T12:24:06.411Z,102188.84
2023-04-15T12:26:36.940Z,102191.75
2023-04-15T12:29:05.223Z,102191.97
2023-04-15T12:31:33.162Z,102188.91
2023-04-15T12:34:01.814Z,102188.09
2023-04-15T12:36:36.084Z,102184.56
2023-04-15T12:39:06.301Z,102194.94
2023-04-15T12:41:34.228Z,102203.84
2023-04-15T12:44:02.263Z,102193.34
2023-04-15T12:46:30.352Z,102199.53
2023-04-15T12:48:58.251Z,102203.59
2023-04-15T12:51:26.453Z,102206.97
2023-04-15T12:53:54.327Z,102213.16
2023-04-15T12:56:23.945Z,102209.91
2023-04-15T12:58:51.910Z,102203.28
2023-04-15T13:01:20.004Z,102211.63
2023-04-15T13:03:48.517Z,102212.31
2023-04-15T13:06:18.810Z,102208.84
2023-04-15T13:08:57.159Z,102213.88
2023-04-15T13:11:29.297Z,102210.81
2023-04-15T13:13:57.229Z,102219.97
2023-04-15T13:16:25.708Z,102221.78
2023-04-15T13:18:53.770Z,102204.97
2023-04-15T13:21:21.859Z,102222.41
2023-04-15T13:23:50.082Z,102222.94
2023-04-15T13:26:18.409Z,102233.94
2023-04-15T13:28:47.690Z,102230.00
2023-04-15T13:31:15.826Z,102232.97
2023-04-15T13:33:43.767Z,102227.31
2023-04-15T13:36:11.680Z,102229.03
2023-04-15T13:38:39.651Z,102225.03
2023-04-15T13:41:07.766Z,102223.88
2023-04-15T13:43:35.739Z,102224.94
2023-04-15T13:46:05.345Z,102230.09
2023-04-15T13:48:33.290Z,102229.34
2023-04-15T13:51:01.186Z,102231.75
2023-04-15T13:53:38.049Z,102259.69
2023-04-15T13:56:07.880Z,102257.03
2023-04-15T13:58:35.810Z,102252.59
2023-04-15T14:01:06.077Z,102267.47
2023-04-15T14:03:36.168Z,102261.53
2023-04-15T14:06:04.656Z,102264.09
2023-04-15T14:08:32.584Z,102268.31
2023-04-15T14:11:00.655Z,102266.81
2023-04-15T14:13:28.560Z,102262.16
2023-04-15T14:15:56.464Z,102266.41
2023-04-15T14:18:25.710Z,102273.88
2023-04-15T14:20:53.607Z,102270.06
2023-04-15T14:23:21.646Z,102273.22
2023-04-15T14:25:49.533Z,102272.53
2023-04-15T14:28:17.398Z,102282.69
2023-04-15T14:30:45.412Z,102284.09
2023-04-15T14:33:13.426Z,102277.69
2023-04-15T14:35:43.119Z,102282.56
2023-04-15T14:38:11.982Z,102275.53
2023-04-15T14:40:39.968Z,102284.97
2023-04-15T14:43:07.861Z,102290.66
2023-04-15T14:45:36.405Z,102290.16
2023-04-15T14:48:06.481Z,102291.25
2023-04-15T14:50:34.488Z,102301.00
2023-04-15T14:53:04.143Z,102290.03
2023-04-15T14:55:32.018Z,102283.72
2023-04-15T14:58:02.122Z,102272.88
2023-04-15T15:00:30.516Z,102285.53
2023-04-15T15:02:58.457Z,102294.75
2023-04-15T15:05:26.654Z,102291.13
2023-04-15T15:07:54.622Z,102286.75
2023-04-15T15:10:34.957Z,102285.44
2023-04-15T15:13:11.849Z,102292.72
2023-04-15T15:15:40.210Z,102293.41
2023-04-15T15:18:08.197Z,102292.75
2023-04-15T15:20:36.248Z,102298.50
2023-04-15T15:23:04.191Z,102290.34
2023-04-15T15:25:33.454Z,102290.38
2023-04-15T15:28:01.366Z,102290.09
2023-04-15T15:30:29.265Z,102288.41
2023-04-15T15:32:57.320Z,102294.41
2023-04-15T15:35:25.944Z,102290.97
2023-04-15T15:37:55.143Z,102298.56
2023-04-15T15:40:23.134Z,102289.75
2023-04-15T15:42:52.564Z,102288.75
2023-04-15T15:45:20.409Z,102303.63
2023-04-15T15:47:48.522Z,102309.44
2023-04-15T15:50:16.909Z,102297.78
2023-04-15T15:52:44.783Z,102303.72
2023-04-15T15:55:12.686Z,102308.22
2023-04-15T15:57:40.551Z,102306.59
2023-04-15T16:00:12.709Z,102295.81
2023-04-15T16:05:12.328Z,102294.03
2023-04-15T16:07:40.380Z,102296.97
2023-04-15T16:10:09.310Z,102296.97
2023-04-15T16:12:37.199Z,102303.94
2023-04-15T16:15:05.667Z,102297.00
2023-04-15T16:17:35.057Z,102296.53
2023-04-15T16:20:05.711Z,102300.69
2023-04-15T16:22:33.807Z,102303.06
2023-04-15T16:25:01.727Z,102279.03
2023-04-15T16:27:29.664Z,102310.38
2023-04-15T16:29:57.496Z,102315.25
2023-04-15T16:32:25.456Z,102319.88
2023-04-15T16:34:55.056Z,102319.25
2023-04-15T16:37:22.928Z,102319.13
2023-04-15T16:39:50.990Z,102331.03
2023-04-15T16:42:18.886Z,102327.81
2023-04-15T16:44:46.733Z,102330.69
2023-04-15T16:47:14.937Z,102326.59
2023-04-15T16:49:42.791Z,102331.59
2023-04-15T16:52:12.134Z,102335.53
2023-04-15T16:54:41.497Z,102336.91
2023-04-15T16:57:09.468Z,102340.91
2023-04-15T16:59:37.372Z,102348.19
2023-04-15T17:02:05.469Z,102341.38
2023-04-15T17:04:34.426Z,102321.31
2023-04-15T17:07:02.425Z,102342.16
2023-04-15T17:09:31.816Z,102336.28
2023-04-15T17:11:59.738Z,102331.97
2023-04-15T17:14:28.598Z,102338.63
2023-04-15T17:16:56.893Z,102325.50
2023-04-15T17:19:24.808Z,102334.44
2023-04-15T17:21:54.776Z,102328.88
2023-04-15T17:24:22.994Z,102339.22
2023-04-15T17:26:52.231Z,102329.09
2023-04-15T17:29:20.120Z,102335.72
2023-04-15T17:31:48.093Z,102328.25
2023-04-15T17:34:16.229Z,102329.47
2023-04-15T17:36:44.450Z,102333.28
2023-04-15T17:39:14.143Z,102327.63
2023-04-15T17:41:42.083Z,102295.97
2023-04-15T17:44:11.376Z,102332.44
2023-04-15T17:46:39.366Z,102336.50
2023-04-15T17:49:07.530Z,102342.47
2023-04-15T17:51:35.529Z,102339.28
2023-04-15T17:54:03.744Z,102339.53
2023-04-15T17:56:32.059Z,102354.94
2023-04-15T17:59:00.528Z,102354.44
2023-04-15T18:01:29.901Z,102362.00
2023-04-15T18:03:58.112Z,102357.91
2023-04-15T18:06:27.228Z,102368.13
2023-04-15T18:08:55.158Z,102360.44
2023-04-15T18:11:23.033Z,102362.50
2023-04-15T18:13:50.983Z,102374.34
2023-04-15T18:16:18.882Z,102379.78
2023-04-15T18:18:48.190Z,102382.69
2023-04-15T18:21:16.146Z,102381.00
2023-04-15T18:23:44.007Z,102390.91
2023-04-15T18:26:11.897Z,102390.97
2023-04-15T18:28:40.127Z,102387.47
2023-04-15T18:31:08.065Z,102382.97
2023-04-15T18:33:36.528Z,102400.06
2023-04-15T18:36:05.946Z,102398.53
2023-04-15T18:38:33.897Z,102406.72
2023-04-15T18:41:01.818Z,102402.19
2023-04-15T18:43:29.714Z,102397.72
2023-04-15T18:45:57.633Z,102394.28
2023-04-15T18:48:26.956Z,102406.88
2023-04-15T18:50:54.916Z,102407.00
2023-04-15T18:53:24.191Z,102394.78
2023-04-15T18:55:52.764Z,102399.03
2023-04-15T18:58:20.630Z,102399.00
2023-04-15T19:00:48.516Z,102409.53
2023-04-15T19:03:16.483Z,102408.53
2023-04-15T19:05:44.489Z,102410.38
2023-04-15T19:08:12.393Z,102422.78
2023-04-15T19:10:41.754Z,102420.22
2023-04-15T19:13:09.622Z,102422.09
2023-04-15T19:15:37.503Z,102434.69
2023-04-15T19:18:10.412Z,102439.19
2023-04-15T19:20:40.039Z,102437.44
2023-04-15T19:23:08.170Z,102436.72
2023-04-15T19:25:36.074Z,102447.44
2023-04-15T19:28:06.740Z,102442.09
2023-04-15T19:30:34.643Z,102431.25
2023-04-15T19:33:02.843Z,102431.22
2023-04-15T19:35:30.832Z,102432.94
2023-04-15T19:37:58.770Z,102432.94
2023-04-15T19:40:26.740Z,102439.25
2023-04-15T19:42:54.688Z,102427.75
2023-04-15T19:45:23.961Z,102427.97
2023-04-15T19:47:52.761Z,102441.13
2023-04-15T19:50:24.661Z,102446.31
2023-04-15T19:52:52.589Z,102453.41
2023-04-15T19:55:20.513Z,102453.47
2023-04-15T19:57:48.479Z,102454.41
2023-04-15T20:00:16.840Z,102459.81
2023-04-15T20:02:46.177Z,102454.47
2023-04-15T20:05:14.150Z,102454.41
2023-04-15T20:07:43.149Z,102431.75
2023-04-15T20:10:13.235Z,102463.22
2023-04-15T20:12:50.486Z,102472.09
2023-04-15T20:15:20.896Z,102464.03
2023-04-15T20:17:50.199Z,102463.97
2023-04-15T20:20:18.124Z,102466.69
2023-04-15T20:22:46.017Z,102470.34
2023-04-15T20:25:13.918Z,102482.94
2023-04-15T20:27:41.902Z,102479.47
2023-04-15T20:30:11.044Z,102480.44
2023-04-15T20:32:39.000Z,102479.63
2023-04-15T20:35:08.983Z,102480.59
2023-04-15T20:37:38.398Z,102474.53
2023-04-15T20:40:07.897Z,102487.78
2023-04-15T20:42:35.770Z,102483.38
2023-04-15T20:45:03.924Z,102487.78
2023-04-15T20:47:31.844Z,102491.44
2023-04-15T20:49:59.769Z,102486.22
2023-04-15T20:52:29.055Z,102478.34
2023-04-15T20:54:56.937Z,102483.03
2023-04-15T20:57:25.926Z,102485.00
2023-04-15T20:59:53.842Z,102486.88
2023-04-15T21:02:21.937Z,102485.28
2023-04-15T21:04:49.875Z,102491.63
2023-04-15T21:07:17.760Z,102494.34
2023-04-15T21:09:47.349Z,102492.69
2023-04-15T21:12:15.256Z,102493.72
2023-04-15T21:14:43.165Z,102491.13
2023-04-15T21:17:11.517Z,102498.31
2023-04-15T21:19:40.355Z,102498.31
2023-04-15T21:22:08.264Z,102496.59
2023-04-15T21:24:36.467Z,102497.50
2023-04-15T21:27:05.905Z,102505.66
2023-04-15T21:29:33.752Z,102497.72
2023-04-15T21:32:01.860Z,102498.78
2023-04-15T21:34:29.957Z,102492.69
2023-04-15T21:36:57.803Z,102502.63
2023-04-15T21:39:26.006Z,102495.56
2023-04-15T21:41:53.968Z,102502.75
2023-04-15T21:44:23.286Z,102501.09
2023-04-15T21:46:51.583Z,102504.72
2023-04-15T21:49:20.333Z,102503.91
2023-04-15T21:51:48.613Z,102509.34
2023-04-15T21:54:16.672Z,102512.00
2023-04-15T21:56:44.549Z,102518.25
2023-04-15T21:59:12.459Z,102511.16
2023-04-15T22:01:41.809Z,102508.41
2023-04-15T22:04:11.178Z,102516.41
2023-04-15T22:06:39.428Z,102506.66
2023-04-15T22:09:07.333Z,102513.75
2023-04-15T22:11:35.337Z,102511.06
2023-04-15T22:14:03.289Z,102510.13
2023-04-15T22:16:31.230Z,102505.72
2023-04-15T22:19:00.494Z,102510.13
2023-04-15T22:21:28.550Z,102502.94
2023-04-15T22:24:38.128Z,102503.00
2023-04-15T22:26:44.270Z,102511.78
2023-04-15T22:29:12.130Z,102511.00
2023-04-15T22:31:40.140Z,102519.91
2023-04-15T22:34:09.602Z,102505.81
2023-04-15T22:36:37.631Z,102518.16
2023-04-15T22:39:05.850Z,102518.16
2023-04-15T22:41:34.136Z,102511.06
2023-04-15T22:44:02.063Z,102511.97
2023-04-15T22:46:30.257Z,102492.75
2023-04-15T22:48:58.224Z,102502.28
2023-04-15T22:51:28.123Z,102480.34
2023-04-15T22:53:56.182Z,102494.50
2023-04-15T22:56:24.063Z,102491.16
2023-04-15T22:58:51.960Z,102493.16
2023-04-15T23:01:20.920Z,102495.97
2023-04-15T23:03:57.123Z,102499.72
2023-04-15T23:06:34.818Z,102507.81
2023-04-15T23:09:02.711Z,102508.00
2023-04-15T23:11:30.625Z,102503.50
2023-04-15T23:13:58.527Z,102499.94
2023-04-15T23:16:26.560Z,102508.84
2023-04-15T23:18:54.761Z,102510.56
2023-04-15T23:21:25.490Z,102507.84
2023-04-15T23:23:55.388Z,102507.84
2023-04-15T23:26:23.251Z,102513.19
2023-04-15T23:28:51.872Z,102513.28
2023-04-15T23:31:19.748Z,102515.91
2023-04-15T23:33:47.676Z,102525.69
2023-04-15T23:36:15.566Z,102527.47
2023-04-15T23:38:43.474Z,102530.91
2023-04-15T23:41:12.761Z,102528.19
2023-04-15T23:43:40.630Z,102528.94
2023-04-15T23:46:08.624Z,102527.16
2023-04-15T23:48:36.512Z,102520.94
2023-04-15T23:51:04.608Z,102525.34
2023-04-15T23:53:32.456Z,102525.34
2023-04-15T23:56:00.424Z,102537.81
2023-04-15T23:58:29.704Z,102532.50
